createdAt,value
2023-03-12T00:01:30.711Z,9.00
2023-03-12T00:04:00.290Z,11.32
2023-03-12T00:06:29.646Z,9.95
2023-03-12T00:09:01.905Z,8.77
2023-03-12T00:11:32.779Z,10.98
2023-03-12T00:14:01.892Z,9.25
2023-03-12T00:16:30.949Z,9.77
2023-03-12T00:18:59.977Z,7.82
2023-03-12T00:21:29.141Z,10.02
2023-03-12T00:23:58.391Z,8.00
2023-03-12T00:26:27.593Z,8.68
2023-03-12T00:28:58.503Z,7.85
2023-03-12T00:31:31.932Z,9.02
2023-03-12T00:34:03.488Z,10.20
2023-03-12T00:36:33.756Z,9.80
2023-03-12T00:39:03.437Z,9.30
2023-03-12T00:41:32.757Z,9.82
2023-03-12T00:44:03.228Z,10.20
2023-03-12T00:46:32.450Z,8.57
2023-03-12T00:49:01.671Z,10.95
2023-03-12T00:51:30.987Z,8.13
2023-03-12T00:53:59.982Z,8.68
2023-03-12T00:56:28.887Z,5.07
2023-03-12T00:58:58.166Z,4.90
2023-03-12T01:01:28.901Z,4.88
2023-03-12T01:03:58.976Z,2.80
2023-03-12T01:06:28.534Z,2.78
2023-03-12T01:08:57.523Z,3.35
2023-03-12T01:11:27.318Z,3.03
2023-03-12T01:13:56.460Z,2.47
2023-03-12T01:16:28.429Z,2.85
2023-03-12T01:19:00.021Z,3.38
2023-03-12T01:21:29.725Z,4.53
2023-03-12T01:23:59.076Z,2.65
2023-03-12T01:26:28.380Z,3.33
2023-03-12T01:28:57.476Z,2.25
2023-03-12T01:31:26.579Z,2.70
2023-03-12T01:33:55.657Z,2.03
2023-03-12T01:36:27.508Z,1.55
2023-03-12T01:38:58.404Z,1.58
2023-03-12T01:41:29.340Z,1.83
2023-03-12T01:43:58.222Z,1.83
2023-03-12T01:46:34.807Z,3.42
2023-03-12T01:49:12.617Z,1.80
2023-03-12T01:51:46.921Z,2.13
2023-03-12T01:54:19.396Z,1.95
2023-03-12T01:56:49.634Z,3.65
2023-03-12T01:59:24.647Z,3.10
2023-03-12T02:01:54.168Z,2.22
2023-03-12T02:04:25.742Z,2.00
2023-03-12T02:07:02.204Z,2.00
2023-03-12T02:09:34.000Z,1.23
2023-03-12T02:12:03.710Z,1.35
2023-03-12T02:14:33.357Z,1.05
2023-03-12T02:17:02.590Z,1.73
2023-03-12T02:19:42.750Z,1.13
2023-03-12T02:22:14.490Z,0.95
2023-03-12T02:24:48.767Z,1.15
2023-03-12T02:27:20.301Z,0.93
2023-03-12T02:29:50.804Z,1.40
2023-03-12T02:32:24.653Z,1.88
2023-03-12T02:34:53.785Z,1.00
2023-03-12T02:37:22.939Z,1.80
2023-03-12T02:39:58.988Z,1.60
2023-03-12T02:42:29.468Z,1.67
2023-03-12T02:44:59.759Z,1.60
2023-03-12T02:47:28.805Z,1.10
2023-03-12T02:49:57.847Z,1.70
2023-03-12T02:52:27.053Z,2.50
2023-03-12T02:54:56.102Z,1.38
2023-03-12T02:57:25.065Z,2.47
2023-03-12T02:59:55.393Z,1.65
2023-03-12T03:02:24.494Z,2.28
2023-03-12T03:04:53.608Z,2.25
2023-03-12T03:07:22.714Z,1.77
2023-03-12T03:09:51.849Z,2.25
2023-03-12T03:12:20.887Z,2.35
2023-03-12T03:14:50.251Z,3.13
2023-03-12T03:17:23.462Z,2.75
2023-03-12T03:19:52.776Z,4.68
2023-03-12T03:22:23.014Z,2.33
2023-03-12T03:24:52.297Z,2.33
2023-03-12T03:27:21.289Z,2.05
2023-03-12T03:32:18.485Z,2.15
2023-03-12T03:34:48.804Z,2.75
2023-03-12T03:37:19.537Z,2.50
2023-03-12T03:39:48.835Z,2.72
2023-03-12T03:42:18.022Z,3.28
2023-03-12T03:44:48.013Z,2.58
2023-03-12T03:47:17.356Z,4.20
2023-03-12T03:49:46.550Z,3.08
2023-03-12T03:52:16.979Z,3.03
2023-03-12T03:54:46.064Z,1.73
2023-03-12T03:57:15.367Z,3.13
2023-03-12T03:59:44.472Z,3.05
2023-03-12T04:02:13.574Z,3.30
2023-03-12T04:04:44.296Z,4.05
2023-03-12T04:07:13.212Z,3.13
2023-03-12T04:09:44.846Z,4.20
2023-03-12T04:12:13.949Z,2.47
2023-03-12T04:14:44.734Z,2.85
2023-03-12T04:17:14.449Z,3.40
2023-03-12T04:19:43.536Z,3.65
2023-03-12T04:22:12.576Z,4.28
2023-03-12T04:24:43.053Z,3.92
2023-03-12T04:27:12.225Z,3.60
2023-03-12T04:29:42.191Z,4.40
2023-03-12T04:32:11.723Z,4.90
2023-03-12T04:34:40.903Z,4.10
2023-03-12T04:37:11.412Z,5.57
2023-03-12T04:39:40.634Z,4.38
2023-03-12T04:42:11.757Z,4.07
2023-03-12T04:44:42.466Z,3.42
2023-03-12T04:47:11.502Z,5.65
2023-03-12T04:49:40.608Z,3.33
2023-03-12T04:52:09.688Z,4.93
2023-03-12T04:54:39.172Z,4.70
2023-03-12T04:57:08.357Z,4.25
2023-03-12T04:59:39.457Z,4.72
2023-03-12T05:02:08.892Z,5.85
2023-03-12T05:04:38.044Z,5.80
2023-03-12T05:07:07.512Z,6.38
2023-03-12T05:09:36.766Z,4.97
2023-03-12T05:12:06.548Z,6.15
2023-03-12T05:14:36.227Z,5.03
2023-03-12T05:17:07.050Z,5.45
2023-03-12T05:19:36.960Z,5.75
2023-03-12T05:22:06.321Z,4.40
2023-03-12T05:24:37.381Z,5.90
2023-03-12T05:27:08.500Z,6.40
2023-03-12T05:29:37.549Z,5.93
2023-03-12T05:32:08.670Z,8.73
2023-03-12T05:34:38.376Z,4.45
2023-03-12T05:37:07.462Z,4.72
2023-03-12T05:39:38.176Z,4.38
2023-03-12T05:42:08.663Z,4.90
2023-03-12T05:44:38.807Z,6.00
2023-03-12T05:47:10.649Z,5.47
